Time;durP1;ratioP1;P1;durP2;ratioP2;P2;SDS_P1;SDS_P2;PMS_P1;PMS_P2;Temp;Humidity;BMP_temperature;BMP_pressure;BME280_temperature;BME280_humidity;BME280_pressure;Samples;Min_cycle;Max_cycle;Signal;HPM_P1;HPM_P2
2023/06/21 00:01:49;;;;;;;32.33;25.92;;;;;;;;;;5069800;28;20052;-36
2023/06/21 00:07:26;;;;;;;32.22;26.17;;;;;;;;;;5083131;28;20024;-36
2023/06/21 00:09:52;;;;;;;36.97;28.08;;;;;;;;;;5086404;28;20031;-35
2023/06/21 00:12:17;;;;;;;37.15;27.85;;;;;;;;;;5088040;28;20023;-36
2023/06/21 00:14:43;;;;;;;37.10;28.05;;;;;;;;;;5080402;28;20487;-36
2023/06/21 00:17:08;;;;;;;37.50;27.63;;;;;;;;;;5075978;28;20399;-36
2023/06/21 00:19:33;;;;;;;36.75;28.25;;;;;;;;;;5084535;28;20509;-36
2023/06/21 00:22:02;;;;;;;35.85;27.95;;;;;;;;;;5079613;28;20043;-36
2023/06/21 00:24:27;;;;;;;37.08;29.20;;;;;;;;;;5081543;28;20079;-36
2023/06/21 00:26:53;;;;;;;38.78;29.80;;;;;;;;;;5084660;28;20016;-37
2023/06/21 00:29:18;;;;;;;40.67;29.88;;;;;;;;;;5082959;28;20027;-36
2023/06/21 00:31:44;;;;;;;42.00;31.10;;;;;;;;;;5082994;28;20394;-36
2023/06/21 00:34:12;;;;;;;41.05;31.35;;;;;;;;;;5083185;28;20028;-37
2023/06/21 00:36:41;;;;;;;37.78;30.10;;;;;;;;;;5085535;28;20102;-36
2023/06/21 00:39:07;;;;;;;36.17;29.05;;;;;;;;;;5085734;28;20585;-37
2023/06/21 00:41:36;;;;;;;40.90;29.63;;;;;;;;;;5079212;28;20479;-37
2023/06/21 00:44:01;;;;;;;41.08;30.48;;;;;;;;;;5081743;28;20051;-37
2023/06/21 00:46:27;;;;;;;42.05;31.38;;;;;;;;;;5079727;28;20043;-37
2023/06/21 00:48:55;;;;;;;41.53;30.50;;;;;;;;;;5065627;28;20016;-36
2023/06/21 00:51:23;;;;;;;38.25;30.50;;;;;;;;;;5081171;28;20040;-37
2023/06/21 00:53:48;;;;;;;40.13;30.17;;;;;;;;;;5084518;28;20024;-36
2023/06/21 00:56:16;;;;;;;42.75;31.00;;;;;;;;;;5066869;28;20052;-36
2023/06/21 00:58:44;;;;;;;40.58;30.95;;;;;;;;;;5077178;28;20052;-36
2023/06/21 01:01:09;;;;;;;40.45;31.33;;;;;;;;;;5082224;28;20139;-37
2023/06/21 01:03:35;;;;;;;41.13;30.08;;;;;;;;;;5067331;28;20111;-36
2023/06/21 01:06:27;;;;;;;42.67;33.08;;;;;;;;;;5069192;28;20061;-36
2023/06/21 01:08:58;;;;;;;45.75;31.50;;;;;;;;;;5050344;28;20444;-36
2023/06/21 01:11:28;;;;;;;40.45;31.00;;;;;;;;;;5083395;28;20020;-36
2023/06/21 01:14:07;;;;;;;38.40;29.75;;;;;;;;;;5080608;28;20467;-37
2023/06/21 01:16:38;;;;;;;39.72;32.47;;;;;;;;;;5081648;28;20096;-35
2023/06/21 01:19:05;;;;;;;39.20;29.75;;;;;;;;;;5074315;28;20033;-36
2023/06/21 01:21:31;;;;;;;46.40;33.25;;;;;;;;;;5081327;28;20644;-36
2023/06/21 01:24:15;;;;;;;38.25;29.60;;;;;;;;;;5083081;28;20016;-37
2023/06/21 01:26:58;;;;;;;39.83;29.77;;;;;;;;;;5082845;28;20485;-37
2023/06/21 01:29:26;;;;;;;50.28;34.88;;;;;;;;;;5085278;28;20028;-36
2023/06/21 01:31:54;;;;;;;43.00;32.05;;;;;;;;;;5085318;28;20039;-37
2023/06/21 01:34:19;;;;;;;40.58;29.75;;;;;;;;;;5083228;28;20383;-36
2023/06/21 01:36:45;;;;;;;41.03;30.23;;;;;;;;;;5084121;28;20057;-36
2023/06/21 01:39:10;;;;;;;40.90;28.70;;;;;;;;;;5084788;28;20025;-36
2023/06/21 01:41:41;;;;;;;38.63;29.20;;;;;;;;;;5084498;28;20368;-36
2023/06/21 01:44:09;;;;;;;38.43;29.53;;;;;;;;;;5085093;28;20098;-37
2023/06/21 01:46:37;;;;;;;37.25;28.77;;;;;;;;;;5085721;28;20016;-36
2023/06/21 01:49:04;;;;;;;42.00;31.00;;;;;;;;;;5085498;28;20020;-37
2023/06/21 01:51:30;;;;;;;35.70;28.88;;;;;;;;;;5082949;28;20024;-37
2023/06/21 01:53:55;;;;;;;36.75;29.23;;;;;;;;;;5084352;28;20498;-35
2023/06/21 01:56:21;;;;;;;40.08;28.52;;;;;;;;;;5088484;28;20020;-37
2023/06/21 01:58:49;;;;;;;35.78;28.20;;;;;;;;;;5081406;28;20025;-37
2023/06/21 02:01:15;;;;;;;39.00;28.92;;;;;;;;;;5086332;28;20116;-36
2023/06/21 02:03:43;;;;;;;39.90;29.25;;;;;;;;;;5079947;28;20506;-36
2023/06/21 02:06:11;;;;;;;37.42;29.88;;;;;;;;;;5068981;28;20020;-36
2023/06/21 02:08:37;;;;;;;40.63;29.67;;;;;;;;;;5079782;28;20021;-36
2023/06/21 02:11:05;;;;;;;39.17;29.50;;;;;;;;;;5087734;28;20016;-36
2023/06/21 02:13:30;;;;;;;36.75;28.63;;;;;;;;;;5081547;28;20024;-36
2023/06/21 02:15:56;;;;;;;40.80;29.55;;;;;;;;;;5073192;28;20039;-36
2023/06/21 02:18:24;;;;;;;38.60;29.08;;;;;;;;;;5086390;28;20044;-36
2023/06/21 02:20:50;;;;;;;40.60;28.75;;;;;;;;;;5089488;28;21496;-36
2023/06/21 02:23:18;;;;;;;41.17;30.35;;;;;;;;;;5086975;28;20020;-36
2023/06/21 02:25:44;;;;;;;45.03;30.48;;;;;;;;;;5069830;28;20024;-36
2023/06/21 02:28:12;;;;;;;39.40;31.13;;;;;;;;;;5083063;28;20528;-36
2023/06/21 02:30:37;;;;;;;43.20;31.15;;;;;;;;;;5079036;28;20023;-36
2023/06/21 02:33:03;;;;;;;41.75;31.88;;;;;;;;;;5083951;28;20032;-36
2023/06/21 02:35:28;;;;;;;47.08;32.47;;;;;;;;;;5082739;28;20141;-36
2023/06/21 02:37:56;;;;;;;43.97;31.77;;;;;;;;;;5087257;28;20024;-36
2023/06/21 02:40:21;;;;;;;39.95;29.85;;;;;;;;;;5087631;28;20042;-36
2023/06/21 02:42:49;;;;;;;36.97;29.50;;;;;;;;;;5070009;28;20036;-36
2023/06/21 02:45:17;;;;;;;40.53;31.38;;;;;;;;;;5087231;28;20036;-36
2023/06/21 02:47:43;;;;;;;42.83;30.75;;;;;;;;;;5069745;28;20035;-36
2023/06/21 02:50:08;;;;;;;40.78;29.67;;;;;;;;;;5068251;28;20382;-36
2023/06/21 02:52:33;;;;;;;40.47;29.85;;;;;;;;;;5077534;28;20024;-35
2023/06/21 02:54:59;;;;;;;37.55;28.98;;;;;;;;;;5081987;28;20029;-36
2023/06/21 02:57:24;;;;;;;46.25;32.35;;;;;;;;;;5083493;28;20382;-36
2023/06/21 02:59:50;;;;;;;42.28;33.10;;;;;;;;;;5085348;28;20027;-36
2023/06/21 03:02:18;;;;;;;42.78;31.00;;;;;;;;;;5063876;28;20047;-36
2023/06/21 03:04:44;;;;;;;42.67;29.80;;;;;;;;;;5086474;28;20032;-36
2023/06/21 03:07:09;;;;;;;39.15;29.60;;;;;;;;;;5065116;28;20116;-35
2023/06/21 03:09:34;;;;;;;37.55;29.10;;;;;;;;;;5069888;28;20080;-36
2023/06/21 03:12:07;;;;;;;38.75;29.40;;;;;;;;;;5080461;28;20039;-35
2023/06/21 03:14:33;;;;;;;37.67;28.52;;;;;;;;;;5099948;27;20027;-36
2023/06/21 03:16:58;;;;;;;38.50;30.75;;;;;;;;;;5076741;28;20032;-36
2023/06/21 03:19:24;;;;;;;38.13;30.77;;;;;;;;;;5078691;28;20031;-36
2023/06/21 03:21:51;;;;;;;44.15;32.95;;;;;;;;;;5079909;28;20712;-36
2023/06/21 03:24:17;;;;;;;69.20;49.47;;;;;;;;;;5082726;28;20024;-36
2023/06/21 03:26:45;;;;;;;47.45;35.38;;;;;;;;;;5068214;28;20485;-36
2023/06/21 03:29:10;;;;;;;41.67;32.33;;;;;;;;;;5088036;28;20410;-35
2023/06/21 03:31:35;;;;;;;37.67;29.33;;;;;;;;;;5085877;28;20023;-36
2023/06/21 03:34:01;;;;;;;38.97;29.75;;;;;;;;;;5085187;28;20375;-36
2023/06/21 03:36:29;;;;;;;23.90;18.80;;;;;;;;;;5086992;28;20016;-35
2023/06/21 03:38:56;;;;;;;38.53;27.92;;;;;;;;;;5085154;28;20531;-35
2023/06/21 03:41:22;;;;;;;41.08;30.25;;;;;;;;;;5070284;28;20033;-36
2023/06/21 03:43:47;;;;;;;36.60;28.38;;;;;;;;;;5083457;28;20039;-36
2023/06/21 03:46:12;;;;;;;37.30;28.27;;;;;;;;;;5084797;28;20394;-36
2023/06/21 03:48:38;;;;;;;62.60;42.38;;;;;;;;;;5084510;28;20016;-35
2023/06/21 03:51:03;;;;;;;53.28;37.10;;;;;;;;;;5083357;28;20032;-35
2023/06/21 03:53:29;;;;;;;38.30;30.42;;;;;;;;;;5081192;28;20039;-36
2023/06/21 03:55:54;;;;;;;39.08;30.15;;;;;;;;;;5083889;28;20035;-36
2023/06/21 03:58:19;;;;;;;38.83;29.50;;;;;;;;;;5083320;28;20487;-37
2023/06/21 04:00:45;;;;;;;47.25;32.60;;;;;;;;;;5069023;28;20486;-36
2023/06/21 04:03:10;;;;;;;40.53;29.67;;;;;;;;;;5066250;28;20040;-37
2023/06/21 04:05:35;;;;;;;36.50;28.58;;;;;;;;;;5083904;28;20514;-36
2023/06/21 04:08:01;;;;;;;37.33;28.65;;;;;;;;;;5065740;28;20454;-37
2023/06/21 04:10:26;;;;;;;38.90;29.55;;;;;;;;;;5070598;28;20462;-36
2023/06/21 04:12:51;;;;;;;36.75;28.90;;;;;;;;;;5068857;28;20042;-36
2023/06/21 04:15:17;;;;;;;38.15;28.70;;;;;;;;;;5080893;28;20093;-37
2023/06/21 04:17:43;;;;;;;40.05;30.85;;;;;;;;;;5069661;28;20067;-36
2023/06/21 04:20:10;;;;;;;42.33;30.33;;;;;;;;;;5082184;28;20509;-36
2023/06/21 04:22:37;;;;;;;37.55;30.35;;;;;;;;;;5081618;28;20389;-36
2023/06/21 04:25:03;;;;;;;41.13;30.92;;;;;;;;;;5080115;28;20035;-36
2023/06/21 04:27:29;;;;;;;39.22;28.27;;;;;;;;;;5081299;28;20402;-36
2023/06/21 04:29:54;;;;;;;39.88;30.15;;;;;;;;;;5082100;28;20536;-36
2023/06/21 04:32:20;;;;;;;40.97;31.60;;;;;;;;;;5066093;28;20030;-36
2023/06/21 04:34:48;;;;;;;202.18;116.70;;;;;;;;;;5081772;28;20023;-36
2023/06/21 04:37:13;;;;;;;55.50;37.20;;;;;;;;;;5066413;28;20039;-36
2023/06/21 04:39:39;;;;;;;42.08;32.03;;;;;;;;;;5081154;28;20509;-35
2023/06/21 04:42:07;;;;;;;42.42;31.25;;;;;;;;;;5069676;28;20040;-37
2023/06/21 04:44:35;;;;;;;39.75;30.13;;;;;;;;;;5078546;28;20020;-36
2023/06/21 04:47:00;;;;;;;42.40;30.27;;;;;;;;;;5086724;28;20401;-37
2023/06/21 04:49:28;;;;;;;41.42;28.73;;;;;;;;;;5083215;28;20012;-36
2023/06/21 04:51:57;;;;;;;35.53;27.48;;;;;;;;;;5082610;28;20039;-36
2023/06/21 04:54:23;;;;;;;36.35;27.02;;;;;;;;;;5083499;28;20078;-36
2023/06/21 04:56:49;;;;;;;38.08;27.85;;;;;;;;;;5080606;28;20111;-37
2023/06/21 04:59:15;;;;;;;38.40;27.52;;;;;;;;;;5081616;28;20028;-37
2023/06/21 05:01:41;;;;;;;39.08;28.08;;;;;;;;;;5069141;28;20036;-37
2023/06/21 05:04:06;;;;;;;38.33;28.23;;;;;;;;;;5089215;28;20016;-37
2023/06/21 05:06:31;;;;;;;37.50;28.83;;;;;;;;;;5070313;28;20081;-37
2023/06/21 05:08:57;;;;;;;38.10;27.92;;;;;;;;;;5086856;28;20032;-36
2023/06/21 05:11:22;;;;;;;41.22;29.65;;;;;;;;;;5089156;28;20035;-36
2023/06/21 05:13:47;;;;;;;39.60;29.15;;;;;;;;;;5070812;28;20024;-37
2023/06/21 05:16:13;;;;;;;42.38;28.83;;;;;;;;;;5084364;28;20020;-37
2023/06/21 05:18:38;;;;;;;37.65;28.92;;;;;;;;;;5087886;28;20028;-37
2023/06/21 05:21:04;;;;;;;36.38;28.70;;;;;;;;;;5073027;28;20387;-37
2023/06/21 05:23:29;;;;;;;40.28;29.52;;;;;;;;;;5088103;28;20077;-37
2023/06/21 05:25:57;;;;;;;37.53;28.15;;;;;;;;;;5085411;28;20054;-37
2023/06/21 05:28:23;;;;;;;37.10;29.02;;;;;;;;;;5072275;28;20024;-36
2023/06/21 05:30:48;;;;;;;37.08;28.60;;;;;;;;;;5070191;28;20047;-37
2023/06/21 05:33:14;;;;;;;40.15;28.33;;;;;;;;;;5082121;28;20025;-37
2023/06/21 05:35:40;;;;;;;37.13;28.67;;;;;;;;;;5084725;28;20016;-37
2023/06/21 05:38:05;;;;;;;38.38;29.05;;;;;;;;;;5087970;28;20077;-36
2023/06/21 05:40:30;;;;;;;41.28;30.70;;;;;;;;;;5089268;28;20027;-37
2023/06/21 05:43:00;;;;;;;45.53;29.77;;;;;;;;;;5066464;28;20127;-37
2023/06/21 05:45:26;;;;;;;36.45;28.58;;;;;;;;;;5074359;28;20028;-37
2023/06/21 05:47:51;;;;;;;39.22;29.45;;;;;;;;;;5072570;28;20039;-37
2023/06/21 05:50:17;;;;;;;40.50;30.17;;;;;;;;;;5083631;28;20363;-37
2023/06/21 05:52:42;;;;;;;36.67;27.55;;;;;;;;;;5071760;28;20024;-37
2023/06/21 05:55:08;;;;;;;39.03;30.20;;;;;;;;;;5072855;28;20043;-37
2023/06/21 05:57:33;;;;;;;38.33;27.92;;;;;;;;;;5069567;28;20586;-37
2023/06/21 05:59:58;;;;;;;40.00;30.48;;;;;;;;;;5086845;28;20024;-37
2023/06/21 06:02:26;;;;;;;39.65;28.77;;;;;;;;;;5072196;28;20055;-37
2023/06/21 06:04:55;;;;;;;37.20;29.23;;;;;;;;;;5102170;27;20024;-37
2023/06/21 06:07:23;;;;;;;40.33;28.13;;;;;;;;;;5078124;28;20031;-37
2023/06/21 06:09:48;;;;;;;42.03;29.75;;;;;;;;;;5089555;28;20012;-37
2023/06/21 06:12:13;;;;;;;40.90;29.08;;;;;;;;;;5089135;28;20024;-37
2023/06/21 06:14:39;;;;;;;41.63;29.50;;;;;;;;;;5087410;28;20035;-37
2023/06/21 06:17:04;;;;;;;41.15;31.00;;;;;;;;;;5087980;28;20099;-37
2023/06/21 06:19:32;;;;;;;39.47;28.90;;;;;;;;;;5071196;28;20182;-37
2023/06/21 06:22:00;;;;;;;36.42;29.65;;;;;;;;;;5089169;28;20450;-37
2023/06/21 06:24:25;;;;;;;40.10;28.63;;;;;;;;;;5086693;28;20019;-37
2023/06/21 06:26:50;;;;;;;35.78;28.83;;;;;;;;;;5066214;28;20020;-36
2023/06/21 06:29:16;;;;;;;44.95;29.73;;;;;;;;;;5072025;28;20016;-38
2023/06/21 06:31:41;;;;;;;40.25;30.00;;;;;;;;;;5084467;28;20496;-37
2023/06/21 06:34:06;;;;;;;39.53;31.50;;;;;;;;;;5061844;28;20044;-37
2023/06/21 06:36:32;;;;;;;40.60;30.23;;;;;;;;;;5084874;28;20016;-37
2023/06/21 06:39:00;;;;;;;39.20;30.37;;;;;;;;;;5078670;28;20145;-36
2023/06/21 06:41:27;;;;;;;39.97;30.13;;;;;;;;;;5084923;28;20295;-36
2023/06/21 06:43:52;;;;;;;40.25;30.55;;;;;;;;;;5064951;28;20060;-37
2023/06/21 06:46:17;;;;;;;39.05;28.77;;;;;;;;;;5083965;28;20156;-37
2023/06/21 06:48:43;;;;;;;41.13;30.45;;;;;;;;;;5080686;28;20024;-37
2023/06/21 06:51:08;;;;;;;38.47;30.70;;;;;;;;;;5080281;28;20698;-36
2023/06/21 06:53:33;;;;;;;38.97;30.08;;;;;;;;;;5064800;28;20433;-37
2023/06/21 06:56:04;;;;;;;41.05;30.52;;;;;;;;;;5066877;28;20085;-37
2023/06/21 06:58:30;;;;;;;39.58;30.80;;;;;;;;;;5077413;28;20024;-37
2023/06/21 07:00:58;;;;;;;39.97;31.13;;;;;;;;;;5081490;28;20039;-37
2023/06/21 07:03:23;;;;;;;40.72;30.77;;;;;;;;;;5062697;28;20032;-37
2023/06/21 07:05:49;;;;;;;38.33;29.25;;;;;;;;;;5082245;28;20036;-37
2023/06/21 07:08:14;;;;;;;42.88;31.92;;;;;;;;;;5078755;28;20016;-38
2023/06/21 07:10:40;;;;;;;43.83;32.58;;;;;;;;;;5075249;28;20754;-37
2023/06/21 07:13:06;;;;;;;42.17;30.70;;;;;;;;;;5078672;28;20023;-37
2023/06/21 07:15:31;;;;;;;38.78;31.05;;;;;;;;;;5078710;28;20034;-37
2023/06/21 07:17:56;;;;;;;39.72;30.73;;;;;;;;;;5063656;28;20032;-37
2023/06/21 07:20:22;;;;;;;38.85;29.85;;;;;;;;;;5061725;28;20028;-35
2023/06/21 07:22:47;;;;;;;36.13;27.67;;;;;;;;;;5065195;28;20032;-35
2023/06/21 07:29:02;;;;;;;32.35;25.05;;;;;;;;;;5067817;27;1441105;-36
2023/06/21 07:31:27;;;;;;;32.95;26.25;;;;;;;;;;5128627;27;20756;-39
2023/06/21 07:33:56;;;;;;;33.78;26.23;;;;;;;;;;5114537;28;20024;-40
2023/06/21 07:36:21;;;;;;;34.20;26.40;;;;;;;;;;5115434;28;20026;-39
2023/06/21 07:38:48;;;;;;;31.48;25.63;;;;;;;;;;5084289;28;20032;-36
2023/06/21 07:41:13;;;;;;;28.67;22.33;;;;;;;;;;5080041;28;20016;-41
2023/06/21 07:43:39;;;;;;;17.95;14.25;;;;;;;;;;5079304;28;20035;-38
2023/06/21 07:46:04;;;;;;;26.73;20.52;;;;;;;;;;5085821;28;20208;-39
2023/06/21 07:48:29;;;;;;;28.88;21.48;;;;;;;;;;5084536;28;20059;-37
2023/06/21 07:50:55;;;;;;;28.05;22.17;;;;;;;;;;5086122;28;20032;-36
2023/06/21 07:53:20;;;;;;;27.98;22.17;;;;;;;;;;5071065;28;20489;-37
2023/06/21 07:55:45;;;;;;;23.83;18.00;;;;;;;;;;5069519;28;20088;-39
2023/06/21 07:58:11;;;;;;;23.48;17.80;;;;;;;;;;5066157;28;20036;-36
2023/06/21 08:00:36;;;;;;;23.90;18.83;;;;;;;;;;5084641;28;20039;-36
2023/06/21 08:03:02;;;;;;;19.65;12.75;;;;;;;;;;5069899;28;20062;-38
2023/06/21 08:05:27;;;;;;;25.80;20.08;;;;;;;;;;5070473;28;20063;-39
2023/06/21 08:07:53;;;;;;;27.20;20.92;;;;;;;;;;5068865;28;20063;-38
2023/06/21 08:10:19;;;;;;;30.08;22.67;;;;;;;;;;5084420;28;20038;-38
2023/06/21 08:12:45;;;;;;;32.88;22.80;;;;;;;;;;5086838;28;20027;-37
2023/06/21 08:15:10;;;;;;;29.58;22.60;;;;;;;;;;5086794;28;20020;-36
2023/06/21 08:17:36;;;;;;;28.27;19.23;;;;;;;;;;5084919;28;20503;-36
2023/06/21 08:20:01;;;;;;;25.17;20.63;;;;;;;;;;5084228;28;20055;-36
2023/06/21 08:22:27;;;;;;;31.00;21.83;;;;;;;;;;5069006;28;20111;-38
2023/06/21 08:24:54;;;;;;;26.27;19.42;;;;;;;;;;5084065;28;20032;-37
2023/06/21 08:27:19;;;;;;;25.77;19.67;;;;;;;;;;5085438;28;20035;-36
2023/06/21 08:29:46;;;;;;;23.95;19.30;;;;;;;;;;5075886;28;20036;-36
2023/06/21 08:32:12;;;;;;;23.20;18.73;;;;;;;;;;5085482;28;20077;-39
2023/06/21 08:34:37;;;;;;;24.27;16.67;;;;;;;;;;5067093;28;20056;-38
2023/06/21 08:37:03;;;;;;;22.10;17.98;;;;;;;;;;5066064;28;21287;-39
2023/06/21 08:39:28;;;;;;;20.83;16.75;;;;;;;;;;5077605;28;20100;-39
2023/06/21 08:41:54;;;;;;;22.15;16.77;;;;;;;;;;5056904;28;20024;-38
2023/06/21 08:44:19;;;;;;;22.63;18.42;;;;;;;;;;5056221;28;20602;-39
2023/06/21 08:46:47;;;;;;;17.83;14.18;;;;;;;;;;5063093;28;20028;-36
2023/06/21 08:49:16;;;;;;;20.88;13.70;;;;;;;;;;5082440;28;20016;-36
2023/06/21 08:51:43;;;;;;;13.18;10.98;;;;;;;;;;5084272;28;20020;-36
2023/06/21 08:54:10;;;;;;;19.20;11.45;;;;;;;;;;5084222;28;20106;-36
2023/06/21 08:56:51;;;;;;;19.95;13.52;;;;;;;;;;5070110;28;20025;-36
2023/06/21 08:59:21;;;;;;;17.48;11.52;;;;;;;;;;5080619;28;20347;-35
2023/06/21 09:01:51;;;;;;;13.45;11.13;;;;;;;;;;5072044;28;20047;-37
2023/06/21 09:04:17;;;;;;;14.13;11.18;;;;;;;;;;5083885;28;20008;-36
2023/06/21 09:06:43;;;;;;;14.77;11.55;;;;;;;;;;5078708;28;20074;-36
2023/06/21 09:09:09;;;;;;;18.90;13.80;;;;;;;;;;5080537;28;20454;-36
2023/06/21 09:11:36;;;;;;;18.27;14.63;;;;;;;;;;5083996;28;20062;-36
2023/06/21 09:14:02;;;;;;;19.42;14.77;;;;;;;;;;5078464;28;20023;-37
2023/06/21 09:16:27;;;;;;;17.33;13.55;;;;;;;;;;5069329;28;20021;-37
2023/06/21 09:18:53;;;;;;;15.75;12.38;;;;;;;;;;5082695;28;20028;-39
2023/06/21 09:21:20;;;;;;;14.13;11.18;;;;;;;;;;5061402;28;20032;-39
2023/06/21 09:23:45;;;;;;;15.15;11.85;;;;;;;;;;5081083;28;20060;-38
2023/06/21 09:26:11;;;;;;;14.18;11.38;;;;;;;;;;5063027;28;20117;-39
2023/06/21 09:28:37;;;;;;;14.35;9.98;;;;;;;;;;5083113;28;20020;-37
2023/06/21 09:31:03;;;;;;;12.43;10.10;;;;;;;;;;5083436;28;20150;-37
2023/06/21 09:33:28;;;;;;;14.50;11.23;;;;;;;;;;5072346;28;20178;-39
2023/06/21 09:35:56;;;;;;;14.20;12.00;;;;;;;;;;5083321;28;20623;-40
2023/06/21 09:38:26;;;;;;;14.95;11.68;;;;;;;;;;5069681;28;20524;-38
2023/06/21 09:40:51;;;;;;;16.88;12.80;;;;;;;;;;5082952;28;20032;-41
2023/06/21 09:43:18;;;;;;;15.77;11.98;;;;;;;;;;5080695;28;20023;-40
2023/06/21 09:45:57;;;;;;;13.25;10.90;;;;;;;;;;5078167;28;20396;-38
2023/06/21 09:48:22;;;;;;;11.50;8.95;;;;;;;;;;5081544;28;20078;-38
2023/06/21 09:50:48;;;;;;;11.40;9.50;;;;;;;;;;5078781;28;20428;-39
2023/06/21 09:53:20;;;;;;;17.00;8.88;;;;;;;;;;5073155;28;20032;-39
2023/06/21 09:55:46;;;;;;;12.02;9.05;;;;;;;;;;5078426;28;20027;-37
2023/06/21 09:58:11;;;;;;;14.70;10.57;;;;;;;;;;5082687;28;20032;-36
2023/06/21 10:00:37;;;;;;;14.95;10.43;;;;;;;;;;5081226;28;20025;-39
2023/06/21 10:03:03;;;;;;;11.73;9.82;;;;;;;;;;5069715;28;20097;-36
2023/06/21 10:05:29;;;;;;;12.10;9.85;;;;;;;;;;5080020;28;20016;-36
2023/06/21 10:07:54;;;;;;;16.35;9.20;;;;;;;;;;5075235;28;20028;-36
2023/06/21 10:10:20;;;;;;;14.48;10.40;;;;;;;;;;5070308;28;20111;-36
2023/06/21 10:12:52;;;;;;;14.20;10.45;;;;;;;;;;5070751;28;20649;-39
2023/06/21 10:15:18;;;;;;;14.20;9.70;;;;;;;;;;5084969;28;20377;-38
2023/06/21 10:17:45;;;;;;;12.15;8.57;;;;;;;;;;5085727;28;20473;-42
2023/06/21 10:20:11;;;;;;;10.32;7.75;;;;;;;;;;5084945;28;20024;-39
2023/06/21 10:22:39;;;;;;;10.27;8.05;;;;;;;;;;5073577;28;20023;-38
2023/06/21 10:25:05;;;;;;;11.43;8.48;;;;;;;;;;5072029;28;20029;-38
2023/06/21 10:27:31;;;;;;;10.98;8.38;;;;;;;;;;5081610;28;20028;-41
2023/06/21 10:29:57;;;;;;;8.77;7.35;;;;;;;;;;5078414;28;20020;-41
2023/06/21 10:32:27;;;;;;;9.35;7.90;;;;;;;;;;5086149;28;20154;-40
2023/06/21 10:34:57;;;;;;;10.80;7.72;;;;;;;;;;5068437;28;20390;-38
2023/06/21 10:37:32;;;;;;;10.65;7.80;;;;;;;;;;5080452;28;20016;-38
2023/06/21 10:40:02;;;;;;;9.27;7.05;;;;;;;;;;5086437;28;20482;-38
2023/06/21 10:42:28;;;;;;;10.65;7.05;;;;;;;;;;5082272;28;20077;-41
2023/06/21 10:44:55;;;;;;;9.05;6.55;;;;;;;;;;5081487;28;20647;-38
2023/06/21 10:47:21;;;;;;;11.10;7.43;;;;;;;;;;5058379;28;20153;-40
2023/06/21 10:49:48;;;;;;;9.50;7.03;;;;;;;;;;5077759;28;20044;-37
2023/06/21 10:52:14;;;;;;;8.20;6.43;;;;;;;;;;5065985;28;20029;-37
2023/06/21 10:54:41;;;;;;;9.75;7.60;;;;;;;;;;5068678;28;20016;-38
2023/06/21 10:57:08;;;;;;;8.07;4.75;;;;;;;;;;5075938;28;20024;-37
2023/06/21 10:59:34;;;;;;;11.55;7.78;;;;;;;;;;5085431;28;20028;-38
2023/06/21 11:01:59;;;;;;;9.93;8.23;;;;;;;;;;5062764;28;20055;-39
2023/06/21 11:04:25;;;;;;;9.70;7.13;;;;;;;;;;5064096;28;20032;-38
2023/06/21 11:06:58;;;;;;;10.73;7.53;;;;;;;;;;5062336;28;20397;-38
2023/06/21 11:09:23;;;;;;;17.90;12.18;;;;;;;;;;5074182;28;20103;-38
2023/06/21 11:11:51;;;;;;;15.77;11.88;;;;;;;;;;5075613;28;20162;-38
2023/06/21 11:14:42;;;;;;;13.98;9.07;;;;;;;;;;5080970;28;20016;-38
2023/06/21 11:17:08;;;;;;;;;;;;;;;;;;5073645;28;20039;-38
2023/06/21 11:19:34;;;;;;;11.13;8.37;;;;;;;;;;5081885;28;19916;-37
2023/06/21 11:22:12;;;;;;;11.00;8.02;;;;;;;;;;5084231;28;20357;-41
2023/06/21 11:24:48;;;;;;;12.88;8.88;;;;;;;;;;5080479;28;20028;-36
2023/06/21 11:27:14;;;;;;;10.98;7.85;;;;;;;;;;5083512;28;20016;-39
2023/06/21 11:29:40;;;;;;;11.75;8.10;;;;;;;;;;5067572;28;20028;-39
2023/06/21 11:32:10;;;;;;;12.10;9.57;;;;;;;;;;5079507;28;20028;-38
2023/06/21 11:34:35;;;;;;;10.85;8.82;;;;;;;;;;5078410;28;20016;-37
2023/06/21 11:37:19;;;;;;;12.38;8.80;;;;;;;;;;5064257;28;20037;-41
2023/06/21 11:39:45;;;;;;;12.40;9.05;;;;;;;;;;5082962;28;20500;-41
2023/06/21 11:42:15;;;;;;;9.75;8.02;;;;;;;;;;5083003;28;20038;-39
2023/06/21 11:44:42;;;;;;;13.18;8.60;;;;;;;;;;5078982;28;20712;-37
2023/06/21 11:47:18;;;;;;;9.45;8.27;;;;;;;;;;5068321;28;20099;-41
2023/06/21 11:49:57;;;;;;;11.98;8.50;;;;;;;;;;5060988;28;20056;-36
2023/06/21 11:52:24;;;;;;;11.95;9.55;;;;;;;;;;5054547;28;20022;-38
2023/06/21 11:54:50;;;;;;;14.15;9.60;;;;;;;;;;5068396;28;20044;-38
2023/06/21 11:57:15;;;;;;;11.68;8.40;;;;;;;;;;5082534;28;20043;-38
2023/06/21 11:59:41;;;;;;;12.05;9.18;;;;;;;;;;5063229;28;20036;-38
2023/06/21 12:02:16;;;;;;;18.17;10.07;;;;;;;;;;5082097;28;20070;-39
2023/06/21 12:04:43;;;;;;;14.40;9.70;;;;;;;;;;5076676;28;20016;-38
2023/06/21 12:07:09;;;;;;;21.50;12.43;;;;;;;;;;5075586;28;20031;-38
2023/06/21 12:09:34;;;;;;;17.55;12.10;;;;;;;;;;5078320;28;20035;-38
2023/06/21 12:12:00;;;;;;;15.45;11.57;;;;;;;;;;5073469;28;20020;-37
2023/06/21 12:14:26;;;;;;;15.05;10.43;;;;;;;;;;5075275;28;20487;-36
2023/06/21 12:16:51;;;;;;;13.07;10.38;;;;;;;;;;5079227;28;20020;-37
2023/06/21 12:19:21;;;;;;;15.55;9.82;;;;;;;;;;5072677;28;20073;-37
2023/06/21 12:21:47;;;;;;;15.20;11.05;;;;;;;;;;5074544;28;20036;-37
2023/06/21 12:24:24;;;;;;;16.83;12.13;;;;;;;;;;5072172;28;20074;-37
2023/06/21 12:26:53;;;;;;;17.88;12.80;;;;;;;;;;5083515;28;20039;-40
2023/06/21 12:29:19;;;;;;;15.43;11.65;;;;;;;;;;5071334;28;20163;-37
2023/06/21 12:31:45;;;;;;;14.35;10.88;;;;;;;;;;5067886;28;20098;-39
2023/06/21 12:34:22;;;;;;;15.75;10.57;;;;;;;;;;5070318;28;20020;-37
2023/06/21 12:36:47;;;;;;;16.10;10.23;;;;;;;;;;5073357;28;20027;-37
2023/06/21 12:39:14;;;;;;;10.88;8.63;;;;;;;;;;5062769;28;20024;-38
2023/06/21 12:41:41;;;;;;;19.40;10.65;;;;;;;;;;5068392;28;20512;-39
2023/06/21 12:44:16;;;;;;;12.68;9.00;;;;;;;;;;5077539;28;20046;-39
2023/06/21 12:46:42;;;;;;;20.42;10.57;;;;;;;;;;5078358;28;20024;-38
2023/06/21 12:49:07;;;;;;;10.05;8.77;;;;;;;;;;5066925;28;20102;-38
2023/06/21 12:51:35;;;;;;;14.05;10.07;;;;;;;;;;5082749;28;20152;-38
2023/06/21 12:54:05;;;;;;;15.13;10.10;;;;;;;;;;5085073;28;20028;-38
2023/06/21 12:56:31;;;;;;;14.98;9.68;;;;;;;;;;5075757;28;20024;-38
2023/06/21 12:58:57;;;;;;;12.48;9.98;;;;;;;;;;5065922;28;20029;-38
2023/06/21 13:01:23;;;;;;;12.30;9.60;;;;;;;;;;5088550;28;20111;-38
2023/06/21 13:03:48;;;;;;;12.63;10.07;;;;;;;;;;5085285;28;20036;-39
2023/06/21 13:06:14;;;;;;;12.32;9.57;;;;;;;;;;5072369;28;20040;-39
2023/06/21 13:08:40;;;;;;;11.00;8.77;;;;;;;;;;5080880;28;20027;-37
2023/06/21 13:11:08;;;;;;;10.90;8.02;;;;;;;;;;5072579;28;20025;-37
2023/06/21 13:13:33;;;;;;;10.23;8.13;;;;;;;;;;5085045;28;20462;-39
2023/06/21 13:15:59;;;;;;;11.45;8.55;;;;;;;;;;5086882;28;20077;-39
2023/06/21 13:18:27;;;;;;;14.27;7.97;;;;;;;;;;5071195;28;20470;-40
2023/06/21 13:20:55;;;;;;;10.02;7.93;;;;;;;;;;5089129;28;20040;-38
2023/06/21 13:23:20;;;;;;;11.57;7.88;;;;;;;;;;5084041;28;20016;-39
2023/06/21 13:25:47;;;;;;;10.93;7.50;;;;;;;;;;5084775;28;20500;-38
2023/06/21 13:28:13;;;;;;;7.88;6.78;;;;;;;;;;5068020;28;20021;-38
2023/06/21 13:30:38;;;;;;;8.20;7.00;;;;;;;;;;5081769;28;20027;-38
2023/06/21 13:33:04;;;;;;;8.27;6.88;;;;;;;;;;5076861;28;20047;-38
2023/06/21 13:35:30;;;;;;;8.10;7.07;;;;;;;;;;5071476;28;20059;-39
2023/06/21 13:37:55;;;;;;;9.15;7.15;;;;;;;;;;5082943;28;20036;-40
2023/06/21 13:40:21;;;;;;;7.65;6.53;;;;;;;;;;5075160;28;20040;-38
2023/06/21 13:42:47;;;;;;;8.13;6.55;;;;;;;;;;5078726;28;20068;-40
2023/06/21 13:45:12;;;;;;;8.50;6.00;;;;;;;;;;5072200;28;20039;-41
2023/06/21 13:47:38;;;;;;;8.70;6.22;;;;;;;;;;5072607;28;20055;-40
2023/06/21 13:50:04;;;;;;;8.18;7.05;;;;;;;;;;5065894;28;20028;-37
2023/06/21 13:52:31;;;;;;;8.60;6.57;;;;;;;;;;5085672;28;20016;-38
2023/06/21 13:54:57;;;;;;;9.40;6.10;;;;;;;;;;5086513;28;20028;-41
2023/06/21 13:57:24;;;;;;;7.10;5.65;;;;;;;;;;5071197;28;20028;-39
2023/06/21 13:59:49;;;;;;;8.88;5.93;;;;;;;;;;5064317;28;20165;-38
2023/06/21 14:02:15;;;;;;;9.50;6.35;;;;;;;;;;5079667;28;20058;-38
2023/06/21 14:04:41;;;;;;;8.77;6.47;;;;;;;;;;5089491;28;20074;-40
2023/06/21 14:07:10;;;;;;;8.40;6.13;;;;;;;;;;5082344;28;20040;-40
2023/06/21 14:09:35;;;;;;;7.97;6.40;;;;;;;;;;5081488;28;20058;-38
2023/06/21 14:12:01;;;;;;;8.55;6.65;;;;;;;;;;5066620;28;20048;-40
2023/06/21 14:14:27;;;;;;;7.38;5.93;;;;;;;;;;5080642;28;20027;-38
2023/06/21 14:16:52;;;;;;;7.95;4.93;;;;;;;;;;5081656;28;20559;-39
2023/06/21 14:19:18;;;;;;;8.13;5.43;;;;;;;;;;5073106;28;20027;-41
2023/06/21 14:21:46;;;;;;;8.70;5.60;;;;;;;;;;5079935;28;20016;-38
2023/06/21 14:24:12;;;;;;;9.40;5.85;;;;;;;;;;5084339;28;20019;-38
2023/06/21 14:26:37;;;;;;;8.20;5.50;;;;;;;;;;5080916;28;20020;-40